Windom, Indiana
Current Conditions -  °F | °C
As of 6:35 PM on Tuesday 21 Oct 2014 (Local Time) from KDCY Reporting Station
Overcast Overcast  
Wind Chill: 10°   Ceiling: 5000
Heat Index: 10°   Visibility: 10mi
Dew Point:   Wind: 5mph
Humidity: 73%   Direction: 10°N
Pressure: 30.14"   Gusts: NA
Location:  38.6262°N, 86.7615°W
Report Text: KDCY 212335Z AUTO 01004KT 10SM OVC050 10/06 A3014 RMK AO2 T01040057
Loading
Personal Weather Stations






























Interactive Weather Map
Tropical Storm Tracking
New forecast layout! Learn more

10-Day Weather Forecast

Advertisements
Track Severe Weather on mobile